createdAt,value
2018-11-12T00:03:08.559Z,73.60
2018-11-12T00:06:33.328Z,73.32
2018-11-12T00:09:58.019Z,73.21
2018-11-12T00:13:22.748Z,73.23
2018-11-12T00:16:47.504Z,73.56
2018-11-12T00:20:13.662Z,73.97
2018-11-12T00:23:38.277Z,73.30
2018-11-12T00:27:02.896Z,73.77
2018-11-12T00:30:27.564Z,73.99
2018-11-12T00:33:52.286Z,74.22
2018-11-12T00:37:17.009Z,74.27
2018-11-12T00:40:41.766Z,74.62
2018-11-12T00:44:06.515Z,74.12
2018-11-12T00:47:31.252Z,74.27
2018-11-12T00:50:56.006Z,74.11
2018-11-12T00:54:20.767Z,75.25
2018-11-12T00:57:45.804Z,74.43
2018-11-12T01:01:10.556Z,74.38
2018-11-12T01:04:35.450Z,74.18
2018-11-12T01:08:00.181Z,75.06
2018-11-12T01:11:24.917Z,74.64
2018-11-12T01:14:49.564Z,75.01
2018-11-12T01:18:14.241Z,75.01
2018-11-12T01:21:38.942Z,75.12
2018-11-12T01:25:03.699Z,75.14
2018-11-12T01:28:28.367Z,75.28
2018-11-12T01:31:53.056Z,75.43
2018-11-12T01:35:18.662Z,75.31
2018-11-12T01:38:43.358Z,76.39
2018-11-12T01:42:08.156Z,76.56
2018-11-12T01:45:32.822Z,76.70
2018-11-12T01:48:57.469Z,76.66
2018-11-12T01:52:22.159Z,77.25
2018-11-12T01:55:46.855Z,77.78
2018-11-12T01:59:11.492Z,78.81
2018-11-12T02:02:36.175Z,77.88
2018-11-12T02:06:00.873Z,78.56
2018-11-12T02:09:25.509Z,79.14
2018-11-12T02:12:50.225Z,78.12
2018-11-12T02:16:14.920Z,78.65
2018-11-12T02:19:39.661Z,78.45
2018-11-12T02:23:04.432Z,78.25
2018-11-12T02:26:29.191Z,79.23
2018-11-12T02:29:53.886Z,79.61
2018-11-12T02:33:19.055Z,78.98
2018-11-12T02:36:43.670Z,79.34
2018-11-12T02:40:11.074Z,79.09
2018-11-12T02:43:35.759Z,78.97
2018-11-12T02:47:00.502Z,79.54
2018-11-12T02:50:25.128Z,79.06
2018-11-12T02:53:49.756Z,79.24
2018-11-12T02:57:14.466Z,79.19
2018-11-12T03:00:39.157Z,79.71
2018-11-12T03:04:03.863Z,79.92
2018-11-12T03:07:28.659Z,79.14
2018-11-12T03:10:53.289Z,79.94
2018-11-12T03:14:17.930Z,80.11
2018-11-12T03:17:43.328Z,80.04
2018-11-12T03:21:08.158Z,79.42
2018-11-12T03:24:32.838Z,79.78
2018-11-12T03:27:57.520Z,79.18
2018-11-12T03:31:22.250Z,78.97
2018-11-12T03:34:46.931Z,80.93
2018-11-12T03:38:11.629Z,79.40
2018-11-12T03:41:36.531Z,79.59
2018-11-12T03:45:01.223Z,79.93
2018-11-12T03:48:25.886Z,80.35
2018-11-12T03:51:50.537Z,80.81
2018-11-12T03:55:16.467Z,81.41
2018-11-12T03:58:41.154Z,81.17
2018-11-12T04:02:06.409Z,81.76
2018-11-12T04:05:31.107Z,81.76
2018-11-12T04:08:55.779Z,81.13
2018-11-12T04:12:20.500Z,81.86
2018-11-12T04:15:45.211Z,82.41
2018-11-12T04:19:09.993Z,81.35
2018-11-12T04:22:34.640Z,81.54
2018-11-12T04:25:59.292Z,82.12
2018-11-12T04:29:24.018Z,81.93
2018-11-12T04:32:48.716Z,82.46
2018-11-12T04:36:13.368Z,81.46
2018-11-12T04:39:37.991Z,81.58
2018-11-12T04:43:02.695Z,82.33
2018-11-12T04:46:27.406Z,81.85
2018-11-12T04:49:52.096Z,82.36
2018-11-12T04:53:16.822Z,81.92
2018-11-12T04:56:41.514Z,82.08
2018-11-12T05:00:10.032Z,82.25
2018-11-12T05:03:34.738Z,81.71
2018-11-12T05:06:59.427Z,82.28
2018-11-12T05:10:25.215Z,82.21
2018-11-12T05:13:49.983Z,82.57
2018-11-12T05:17:14.667Z,82.84
2018-11-12T05:20:39.338Z,82.82
2018-11-12T05:24:04.050Z,82.51
2018-11-12T05:27:28.831Z,82.58
2018-11-12T05:30:53.560Z,82.89
2018-11-12T05:34:18.267Z,82.45
2018-11-12T05:37:43.199Z,83.12
2018-11-12T05:41:08.119Z,83.47
2018-11-12T05:44:32.805Z,83.52
2018-11-12T05:47:57.600Z,83.62
2018-11-12T05:51:22.287Z,83.16
2018-11-12T05:54:47.058Z,82.70
2018-11-12T05:58:11.720Z,82.88
2018-11-12T06:01:36.489Z,83.34
2018-11-12T06:05:01.281Z,83.24
2018-11-12T06:08:25.925Z,82.46
2018-11-12T06:11:50.663Z,82.70
2018-11-12T06:15:15.624Z,82.88
2018-11-12T06:18:40.324Z,83.08
2018-11-12T06:22:05.076Z,83.72
2018-11-12T06:25:34.774Z,83.70
2018-11-12T06:28:59.445Z,84.24
2018-11-12T06:32:24.126Z,83.72
2018-11-12T06:35:50.957Z,84.02
2018-11-12T06:39:15.691Z,84.42
2018-11-12T06:42:40.487Z,84.29
2018-11-12T06:46:05.496Z,83.74
2018-11-12T06:49:30.239Z,83.38
2018-11-12T06:52:55.079Z,84.63
2018-11-12T06:56:19.837Z,84.17
2018-11-12T06:59:44.527Z,83.96
2018-11-12T07:03:09.232Z,84.05
2018-11-12T07:06:34.073Z,83.14
2018-11-12T07:09:58.681Z,83.47
2018-11-12T07:13:23.484Z,83.93
2018-11-12T07:16:48.948Z,83.43
2018-11-12T07:20:17.933Z,83.78
2018-11-12T07:23:42.601Z,83.34
2018-11-12T07:27:07.334Z,83.59
2018-11-12T07:30:32.097Z,83.10
2018-11-12T07:33:56.765Z,83.16
2018-11-12T07:37:21.493Z,83.43
2018-11-12T07:40:46.149Z,83.70
2018-11-12T07:44:10.881Z,84.05
2018-11-12T07:47:35.598Z,83.84
2018-11-12T07:51:00.333Z,83.04
2018-11-12T07:54:25.039Z,83.58
2018-11-12T07:57:50.928Z,83.91
2018-11-12T08:01:15.609Z,83.58
2018-11-12T08:04:40.254Z,84.00
2018-11-12T08:08:05.016Z,83.71
2018-11-12T08:11:29.682Z,83.93
2018-11-12T08:14:54.397Z,83.84
2018-11-12T08:18:19.038Z,83.64
2018-11-12T08:21:43.784Z,83.38
2018-11-12T08:25:10.133Z,82.64
2018-11-12T08:28:34.807Z,83.55
2018-11-12T08:31:59.612Z,84.00
2018-11-12T08:35:24.346Z,83.28
2018-11-12T08:38:49.053Z,82.91
2018-11-12T08:42:13.694Z,83.30
2018-11-12T08:45:38.350Z,82.87
2018-11-12T08:49:03.687Z,82.80
2018-11-12T08:52:28.445Z,82.70
2018-11-12T08:55:53.153Z,82.22
2018-11-12T08:59:17.965Z,82.54
2018-11-12T09:02:42.852Z,82.06
2018-11-12T09:06:07.584Z,81.13
2018-11-12T09:09:32.296Z,81.41
2018-11-12T09:12:57.068Z,81.36
2018-11-12T09:16:21.814Z,81.32
2018-11-12T09:19:46.531Z,82.25
2018-11-12T09:23:11.281Z,81.97
2018-11-12T09:26:36.061Z,81.94
2018-11-12T09:30:00.770Z,82.22
2018-11-12T09:33:25.455Z,82.43
2018-11-12T09:36:50.152Z,81.16
2018-11-12T09:40:20.355Z,82.13
2018-11-12T09:43:45.439Z,81.11
2018-11-12T09:47:10.144Z,82.01
2018-11-12T09:50:34.850Z,81.80
2018-11-12T09:53:59.588Z,82.41
2018-11-12T09:57:24.242Z,82.79
2018-11-12T10:00:49.229Z,82.51
2018-11-12T10:04:14.571Z,82.57
2018-11-12T10:07:39.964Z,82.58
2018-11-12T10:11:05.432Z,82.69
2018-11-12T10:14:31.143Z,82.90
2018-11-12T10:17:54.949Z,81.68
2018-11-12T10:21:17.483Z,81.39
2018-11-12T10:24:42.157Z,81.74
2018-11-12T10:28:06.916Z,82.19
2018-11-12T10:31:31.638Z,81.89
2018-11-12T10:34:56.388Z,81.73
2018-11-12T10:38:21.081Z,81.83
2018-11-12T10:41:45.794Z,81.83
2018-11-12T10:45:10.599Z,80.78
2018-11-12T10:48:35.290Z,80.99
2018-11-12T10:52:00.196Z,80.85
2018-11-12T10:55:25.970Z,80.26
2018-11-12T10:58:50.551Z,80.07
2018-11-12T11:02:20.406Z,80.43
2018-11-12T11:05:53.194Z,80.04
2018-11-12T11:09:17.885Z,79.94
2018-11-12T11:12:43.161Z,79.50
2018-11-12T11:16:07.925Z,80.11
2018-11-12T11:19:32.630Z,79.88
2018-11-12T11:22:57.369Z,80.53
2018-11-12T11:26:22.067Z,80.64
2018-11-12T11:29:46.755Z,80.12
2018-11-12T11:33:11.506Z,79.56
2018-11-12T11:36:36.200Z,79.41
2018-11-12T11:40:00.945Z,79.04
2018-11-12T11:43:25.623Z,77.86
2018-11-12T11:46:50.328Z,77.20
2018-11-12T11:50:17.560Z,76.86
2018-11-12T11:53:42.147Z,77.94
2018-11-12T11:57:07.115Z,78.92
2018-11-12T12:00:31.786Z,79.32
2018-11-12T12:03:59.817Z,80.02
2018-11-12T12:07:24.491Z,80.31
2018-11-12T12:10:49.194Z,80.13
2018-11-12T12:14:13.915Z,80.19
2018-11-12T12:17:38.675Z,81.38
2018-11-12T12:21:03.563Z,80.39
2018-11-12T12:24:28.279Z,80.68
2018-11-12T12:27:52.956Z,80.29
2018-11-12T12:31:17.673Z,79.89
2018-11-12T12:34:42.399Z,80.96
2018-11-12T12:38:07.199Z,80.66
2018-11-12T12:41:31.882Z,82.16
2018-11-12T12:44:56.697Z,81.76
2018-11-12T12:48:21.384Z,82.06
2018-11-12T12:51:46.134Z,81.50
2018-11-12T12:55:11.718Z,81.54
2018-11-12T12:58:36.440Z,81.79
2018-11-12T13:02:01.200Z,81.13
2018-11-12T13:05:25.896Z,81.36
2018-11-12T13:08:50.649Z,81.42
2018-11-12T13:12:15.355Z,81.26
2018-11-12T13:15:40.621Z,81.58
2018-11-12T13:19:05.459Z,80.56
2018-11-12T13:22:30.122Z,80.48
2018-11-12T13:25:54.892Z,79.11
2018-11-12T13:29:19.644Z,79.70
2018-11-12T13:32:44.938Z,79.15
2018-11-12T13:36:09.649Z,79.20
2018-11-12T13:39:34.365Z,79.05
2018-11-12T13:43:00.358Z,79.12
2018-11-12T13:46:29.235Z,78.72
2018-11-12T13:49:54.021Z,78.64
2018-11-12T13:53:18.729Z,78.44
2018-11-12T13:56:43.523Z,77.77
2018-11-12T14:00:11.927Z,77.68
2018-11-12T14:03:36.627Z,77.89
2018-11-12T14:07:01.379Z,77.93
2018-11-12T14:10:28.825Z,78.34
2018-11-12T14:13:53.668Z,77.90
2018-11-12T14:17:18.376Z,77.89
2018-11-12T14:20:43.143Z,78.21
2018-11-12T14:24:07.819Z,77.83
2018-11-12T14:27:32.496Z,76.73
2018-11-12T14:30:57.139Z,78.82
2018-11-12T14:34:21.839Z,78.01
2018-11-12T14:37:47.204Z,78.76
2018-11-12T14:41:11.863Z,78.15
2018-11-12T14:44:36.511Z,78.70
2018-11-12T14:48:01.153Z,77.73
2018-11-12T14:51:25.846Z,78.15
2018-11-12T14:54:50.524Z,78.31
2018-11-12T14:58:15.173Z,78.48
2018-11-12T15:01:39.824Z,80.08
2018-11-12T15:05:04.590Z,79.57
2018-11-12T15:08:29.298Z,79.35
2018-11-12T15:11:53.945Z,78.32
2018-11-12T15:15:18.735Z,79.05
2018-11-12T15:18:43.441Z,78.61
2018-11-12T15:22:08.158Z,78.60
2018-11-12T15:25:32.917Z,79.63
2018-11-12T15:28:57.811Z,78.55
2018-11-12T15:32:22.519Z,78.63
2018-11-12T15:35:47.293Z,78.35
2018-11-12T15:39:13.582Z,78.48
2018-11-12T15:42:39.176Z,78.21
2018-11-12T15:46:34.702Z,79.42
2018-11-12T15:49:59.466Z,79.02
2018-11-12T15:53:24.205Z,79.45
2018-11-12T15:56:49.075Z,80.64
2018-11-12T16:00:16.495Z,79.14
2018-11-12T16:03:41.123Z,78.81
2018-11-12T16:07:05.893Z,78.70
2018-11-12T16:10:30.577Z,79.35
2018-11-12T16:13:55.298Z,78.77
2018-11-12T16:17:20.023Z,78.74
2018-11-12T16:20:44.710Z,79.51
2018-11-12T16:24:09.385Z,78.95
2018-11-12T16:27:34.037Z,78.83
2018-11-12T16:30:58.763Z,78.90
2018-11-12T16:34:23.426Z,79.01
2018-11-12T16:37:49.245Z,78.72
2018-11-12T16:41:13.953Z,79.02
2018-11-12T16:44:38.625Z,78.89
2018-11-12T16:48:03.291Z,79.19
2018-11-12T16:51:28.010Z,79.07
2018-11-12T16:54:52.758Z,78.67
2018-11-12T16:58:18.593Z,78.46
2018-11-12T17:01:43.274Z,78.12
2018-11-12T17:05:11.064Z,78.03
2018-11-12T17:08:35.735Z,77.91
2018-11-12T17:12:00.449Z,77.64
2018-11-12T17:15:25.166Z,77.78
2018-11-12T17:18:49.927Z,77.10
2018-11-12T17:22:14.625Z,77.07
2018-11-12T17:25:39.352Z,77.08
2018-11-12T17:29:04.185Z,77.67
2018-11-12T17:32:28.953Z,78.02
2018-11-12T17:35:53.668Z,77.71
2018-11-12T17:39:18.406Z,77.43
2018-11-12T17:42:43.331Z,78.44
2018-11-12T17:46:08.072Z,77.93
2018-11-12T17:49:32.796Z,79.39
2018-11-12T17:52:57.536Z,80.23
2018-11-12T17:56:22.223Z,80.22
2018-11-12T17:59:46.897Z,79.33
2018-11-12T18:03:11.602Z,79.49
2018-11-12T18:06:36.367Z,79.58
2018-11-12T18:10:01.149Z,79.53
2018-11-12T18:13:25.934Z,80.14
2018-11-12T18:16:50.616Z,79.83
2018-11-12T18:20:18.643Z,80.40
2018-11-12T18:23:43.386Z,79.09
2018-11-12T18:27:08.177Z,80.29
2018-11-12T18:30:33.451Z,82.09
2018-11-12T18:33:57.949Z,81.25
2018-11-12T18:37:22.639Z,80.47
2018-11-12T18:40:47.318Z,81.03
2018-11-12T18:44:12.036Z,80.83
2018-11-12T18:47:36.799Z,80.12
2018-11-12T18:51:01.497Z,79.94
2018-11-12T18:54:26.234Z,79.64
2018-11-12T18:57:51.449Z,79.49
2018-11-12T19:01:16.147Z,79.22
2018-11-12T19:04:40.838Z,78.91
2018-11-12T19:08:05.603Z,79.70
2018-11-12T19:11:30.332Z,80.76
2018-11-12T19:14:55.128Z,79.97
2018-11-12T19:18:19.803Z,81.37
2018-11-12T19:21:44.623Z,80.40
2018-11-12T19:25:11.396Z,79.95
2018-11-12T19:28:36.151Z,79.87
2018-11-12T19:32:00.834Z,81.45
2018-11-12T19:35:26.889Z,80.45
2018-11-12T19:38:51.556Z,80.68
2018-11-12T19:42:16.213Z,80.01
2018-11-12T19:45:40.897Z,79.91
2018-11-12T19:49:05.703Z,79.19
2018-11-12T19:52:30.417Z,80.92
2018-11-12T19:55:55.060Z,79.41
2018-11-12T19:59:19.769Z,79.82
2018-11-12T20:02:45.569Z,79.80
2018-11-12T20:06:10.293Z,79.48
2018-11-12T20:09:34.996Z,80.20
2018-11-12T20:12:59.673Z,79.84
2018-11-12T20:16:24.383Z,79.35
2018-11-12T20:19:49.101Z,79.49
2018-11-12T20:23:13.785Z,79.99
2018-11-12T20:26:38.475Z,80.47
2018-11-12T20:30:03.218Z,79.95
2018-11-12T20:33:27.949Z,79.50
2018-11-12T20:36:52.705Z,78.95
2018-11-12T20:40:17.764Z,78.56
2018-11-12T20:43:42.531Z,77.99
2018-11-12T20:47:07.283Z,78.14
2018-11-12T20:50:32.027Z,80.02
2018-11-12T20:53:56.769Z,79.58
2018-11-12T20:57:21.432Z,78.64
2018-11-12T21:00:46.200Z,77.67
2018-11-12T21:04:10.915Z,79.11
2018-11-12T21:07:35.586Z,78.67
2018-11-12T21:11:00.285Z,79.00
2018-11-12T21:14:24.985Z,78.53
2018-11-12T21:17:49.773Z,78.35
2018-11-12T21:21:14.464Z,79.78
2018-11-12T21:24:39.187Z,79.59
2018-11-12T21:28:03.855Z,79.16
2018-11-12T21:31:28.609Z,79.72
2018-11-12T21:34:53.341Z,79.51
2018-11-12T21:38:18.065Z,79.42
2018-11-12T21:41:43.021Z,79.35
2018-11-12T21:45:09.670Z,79.64
2018-11-12T21:48:34.360Z,78.99
2018-11-12T21:51:59.031Z,78.82
2018-11-12T21:55:23.772Z,79.12
2018-11-12T21:58:48.621Z,79.17
2018-11-12T22:02:13.352Z,78.91
2018-11-12T22:05:38.052Z,78.99
2018-11-12T22:09:02.859Z,78.34
2018-11-12T22:12:27.582Z,77.76
2018-11-12T22:15:52.285Z,77.72
2018-11-12T22:19:17.096Z,78.46
2018-11-12T22:22:42.389Z,78.88
2018-11-12T22:26:07.470Z,78.08
2018-11-12T22:29:32.151Z,77.80
2018-11-12T22:32:57.406Z,77.88
2018-11-12T22:36:22.110Z,78.56
2018-11-12T22:39:46.848Z,77.63
2018-11-12T22:43:11.563Z,78.66
2018-11-12T22:46:36.434Z,78.36
2018-11-12T22:50:01.131Z,79.17
2018-11-12T22:53:25.923Z,80.16
2018-11-12T22:56:50.609Z,79.63
2018-11-12T23:00:24.022Z,79.04
2018-11-12T23:03:48.868Z,78.83
2018-11-12T23:07:13.627Z,79.51
2018-11-12T23:10:38.532Z,79.46
2018-11-12T23:14:03.260Z,79.19
2018-11-12T23:17:27.924Z,79.62
2018-11-12T23:20:52.574Z,79.24
2018-11-12T23:24:17.321Z,78.96
2018-11-12T23:27:42.817Z,78.66
2018-11-12T23:31:07.496Z,79.10
2018-11-12T23:34:32.212Z,79.52
2018-11-12T23:37:56.915Z,78.07
2018-11-12T23:41:24.593Z,78.92
2018-11-12T23:44:49.311Z,79.01
2018-11-12T23:48:13.950Z,79.13
2018-11-12T23:51:38.608Z,78.90
2018-11-12T23:55:03.398Z,78.57
2018-11-12T23:58:28.126Z,78.99
